Time;durP1;ratioP1;P1;durP2;ratioP2;P2;SDS_P1;SDS_P2;PMS_P1;PMS_P2;Temp;Humidity;BMP_temperature;BMP_pressure;BME280_temperature;BME280_humidity;BME280_pressure;Samples;Min_cycle;Max_cycle;Signal;HPM_P1;HPM_P2
2022/10/06 00:02:08;;;;;;;;;;;;;;;17.58;49.95;102082.38;5076714;28;1127;-61
2022/10/06 00:04:34;;;;;;;;;;;;;;;17.28;48.80;102087.06;5076379;28;1166;-61
2022/10/06 00:06:59;;;;;;;;;;;;;;;18.09;49.34;102085.13;5076740;28;1162;-61
2022/10/06 00:09:24;;;;;;;;;;;;;;;17.44;49.43;102077.16;5076740;28;1130;-61
2022/10/06 00:11:50;;;;;;;;;;;;;;;17.24;48.39;102076.81;5076950;28;1217;-61
2022/10/06 00:14:15;;;;;;;;;;;;;;;18.01;48.70;102086.41;5076516;28;1106;-60
2022/10/06 00:16:41;;;;;;;;;;;;;;;17.29;48.96;102085.13;5076387;28;1170;-61
2022/10/06 00:19:06;;;;;;;;;;;;;;;17.11;48.27;102086.19;5075925;28;1910;-61
2022/10/06 00:21:32;;;;;;;;;;;;;;;18.15;48.60;102081.38;5076485;28;1162;-60
2022/10/06 00:23:57;;;;;;;;;;;;;;;17.41;48.88;102083.16;5077136;28;1130;-61
2022/10/06 00:26:23;;;;;;;;;;;;;;;18.63;48.71;102081.75;5076118;28;1150;-61
2022/10/06 00:28:49;;;;;;;;;;;;;;;15.20;58.13;102081.72;5076120;28;1147;-61
2022/10/06 00:31:15;;;;;;;;;;;;;;;16.56;51.72;102071.03;5076853;28;1126;-60
2022/10/06 00:33:40;;;;;;;;;;;;;;;16.86;49.08;102070.00;5068721;28;1244;-61
2022/10/06 00:36:07;;;;;;;;;;;;;;;18.12;50.38;102079.97;5076544;28;1198;-61
2022/10/06 00:38:32;;;;;;;;;;;;;;;17.34;50.29;102071.50;5076473;28;1901;-61
2022/10/06 00:40:58;;;;;;;;;;;;;;;17.07;48.97;102074.03;5052539;28;1510;-61
2022/10/06 00:43:42;;;;;;;;;;;;;;;17.30;49.38;102080.50;5058330;28;1139;-61
2022/10/06 00:46:08;;;;;;;;;;;;;;;17.98;50.07;102081.41;5058574;28;1230;-63
2022/10/06 00:48:33;;;;;;;;;;;;;;;17.40;49.60;102065.03;5062145;28;1103;-62
2022/10/06 00:50:59;;;;;;;;;;;;;;;17.10;48.63;102076.28;5052780;28;1253;-63
2022/10/06 00:53:27;;;;;;;;;;;;;;;18.20;49.39;102072.38;5076136;28;1230;-62
2022/10/06 00:55:53;;;;;;;;;;;;;;;17.47;49.42;102075.03;5074709;28;1170;-62
2022/10/06 00:58:19;;;;;;;;;;;;;;;17.17;48.41;102070.63;5041788;28;1993;-62
2022/10/06 01:00:44;;;;;;;;;;;;;;;17.08;47.47;102071.03;5064286;28;1166;-62
2022/10/06 01:03:30;;;;;;;;;;;;;;;18.39;48.73;102073.75;5065787;28;1213;-61
2022/10/06 01:05:56;;;;;;;;;;;;;;;17.45;49.15;102073.34;5060838;28;1151;-61
2022/10/06 01:08:22;;;;;;;;;;;;;;;17.33;48.40;102075.31;5076285;28;1170;-61
2022/10/06 01:10:47;;;;;;;;;;;;;;;17.70;49.12;102069.38;5061040;28;1083;-61
2022/10/06 01:13:13;;;;;;;;;;;;;;;17.31;48.79;102066.50;5076309;28;1249;-61
2022/10/06 01:15:40;;;;;;;;;;;;;;;17.14;47.63;102062.88;5078723;28;1134;-61
2022/10/06 01:18:12;;;;;;;;;;;;;;;17.75;48.85;102063.13;5072934;28;1914;-61
2022/10/06 01:20:48;;;;;;;;;;;;;;;17.26;48.27;102052.66;5045589;28;1223;-62
2022/10/06 01:23:13;;;;;;;;;;;;;;;18.79;48.47;102064.34;5050041;28;1186;-61
2022/10/06 01:25:39;;;;;;;;;;;;;;;14.60;58.09;102055.06;5079893;28;1142;-61
2022/10/06 01:28:05;;;;;;;;;;;;;;;16.81;52.03;102050.66;5078989;28;1218;-61
2022/10/06 01:30:35;;;;;;;;;;;;;;;17.70;51.06;102044.63;5033892;28;1113;-61
2022/10/06 01:33:01;;;;;;;;;;;;;;;17.26;49.87;102041.66;5044806;28;2098;-61
2022/10/06 01:35:26;;;;;;;;;;;;;;;16.91;49.09;102049.00;5079946;28;1256;-61
2022/10/06 01:37:53;;;;;;;;;;;;;;;16.89;47.92;102042.06;5061574;28;1150;-60
2022/10/06 01:40:19;;;;;;;;;;;;;;;18.13;49.56;102043.09;5061610;28;1983;-60
2022/10/06 01:42:44;;;;;;;;;;;;;;;17.35;49.44;102039.31;5061123;28;1091;-59
2022/10/06 01:45:10;;;;;;;;;;;;;;;17.07;48.63;102041.06;5061770;28;1247;-61
2022/10/06 01:47:36;;;;;;;;;;;;;;;17.20;48.62;102042.66;5079696;28;1130;-61
2022/10/06 01:50:07;;;;;;;;;;;;;;;17.48;49.20;102046.44;5052115;28;1226;-60
2022/10/06 01:52:34;;;;;;;;;;;;;;;17.12;48.68;102041.13;5052328;28;1221;-60
2022/10/06 01:54:59;;;;;;;;;;;;;;;17.04;48.17;102044.25;5078903;28;1051;-61
2022/10/06 01:57:24;;;;;;;;;;;;;;;17.49;48.84;102034.34;5061550;28;1521;-61
2022/10/06 01:59:51;;;;;;;;;;;;;;;17.08;48.25;102040.81;5061032;28;1917;-60
2022/10/06 02:02:16;;;;;;;;;;;;;;;17.97;48.30;102035.69;5060966;28;1326;-61
2022/10/06 02:04:42;;;;;;;;;;;;;;;17.28;48.78;102034.00;5079440;28;1111;-60
2022/10/06 02:07:08;;;;;;;;;;;;;;;17.18;48.67;102031.06;5060988;28;1107;-62
2022/10/06 02:09:44;;;;;;;;;;;;;;;17.86;49.02;102033.84;5061107;28;1413;-61
2022/10/06 02:12:10;;;;;;;;;;;;;;;17.34;48.81;102033.00;5060706;28;1830;-62
2022/10/06 02:14:39;;;;;;;;;;;;;;;17.09;48.45;102030.63;5079137;28;1154;-61
2022/10/06 02:17:05;;;;;;;;;;;;;;;17.97;48.84;102035.69;5078752;28;1150;-63
2022/10/06 02:19:31;;;;;;;;;;;;;;;17.28;48.95;102028.50;5060541;28;1913;-63
2022/10/06 02:21:57;;;;;;;;;;;;;;;17.16;47.74;102030.47;5061174;28;1159;-63
2022/10/06 02:24:22;;;;;;;;;;;;;;;17.40;48.24;102028.44;5078465;28;1110;-62
2022/10/06 02:26:48;;;;;;;;;;;;;;;17.62;48.97;102029.34;5069501;28;1122;-62
2022/10/06 02:29:14;;;;;;;;;;;;;;;17.24;48.23;102017.16;5073192;28;1139;-62
2022/10/06 02:31:39;;;;;;;;;;;;;;;17.59;48.95;102027.09;5060725;28;1159;-63
2022/10/06 02:34:05;;;;;;;;;;;;;;;17.63;48.85;102019.19;5060600;28;1111;-63
2022/10/06 02:36:31;;;;;;;;;;;;;;;17.23;48.39;102015.50;5077483;28;1151;-63
2022/10/06 02:38:56;;;;;;;;;;;;;;;18.12;48.35;102021.34;5049729;28;1918;-63
2022/10/06 02:41:22;;;;;;;;;;;;;;;17.31;48.75;102011.50;5040354;28;1328;-63
2022/10/06 02:43:48;;;;;;;;;;;;;;;17.07;48.06;102008.91;5066911;28;1115;-63
2022/10/06 02:46:14;;;;;;;;;;;;;;;17.85;48.53;102013.78;5078437;28;1225;-63
2022/10/06 02:48:45;;;;;;;;;;;;;;;17.26;48.51;102015.03;5057456;28;1240;-63
2022/10/06 02:51:14;;;;;;;;;;;;;;;18.55;48.10;102018.84;5073977;28;1185;-63
2022/10/06 02:53:44;;;;;;;;;;;;;;;15.05;56.53;102013.66;5040023;28;1219;-62
2022/10/06 02:56:11;;;;;;;;;;;;;;;16.50;50.68;102014.34;5053193;28;1295;-63
2022/10/06 02:58:38;;;;;;;;;;;;;;;18.08;50.17;102009.16;5078084;28;1910;-63
2022/10/06 03:01:11;;;;;;;;;;;;;;;17.16;50.57;102014.00;5078123;28;1130;-62
2022/10/06 03:03:37;;;;;;;;;;;;;;;17.04;48.86;102014.88;5077780;28;1150;-62
2022/10/06 03:06:21;;;;;;;;;;;;;;;18.13;49.56;102009.22;5077551;28;1182;-62
2022/10/06 03:08:56;;;;;;;;;;;;;;;17.30;49.37;102012.59;5059993;28;1341;-62
2022/10/06 03:11:22;;;;;;;;;;;;;;;17.06;48.53;102009.16;5078235;28;1134;-63
2022/10/06 03:13:48;;;;;;;;;;;;;;;17.76;49.06;102013.34;5077960;28;1225;-65
2022/10/06 03:16:18;;;;;;;;;;;;;;;17.48;49.24;102018.94;5062421;28;1158;-63
2022/10/06 03:18:44;;;;;;;;;;;;;;;17.08;48.36;102015.22;5077546;28;1980;-63
2022/10/06 03:21:11;;;;;;;;;;;;;;;17.69;48.81;102020.94;5059979;28;1607;-62
2022/10/06 03:23:36;;;;;;;;;;;;;;;17.56;49.11;102021.28;5077694;28;1155;-63
2022/10/06 03:26:02;;;;;;;;;;;;;;;17.17;48.41;102026.66;5077620;28;1138;-62
2022/10/06 03:28:28;;;;;;;;;;;;;;;17.72;48.75;102023.19;5060031;28;1337;-64
2022/10/06 03:30:59;;;;;;;;;;;;;;;17.55;49.22;102022.38;5075975;28;1162;-64
2022/10/06 03:33:24;;;;;;;;;;;;;;;17.17;48.56;102029.41;5077696;28;1119;-64
2022/10/06 03:35:57;;;;;;;;;;;;;;;17.94;48.86;102025.22;5046476;28;1584;-64
2022/10/06 03:38:22;;;;;;;;;;;;;;;17.44;49.13;102022.16;5044557;28;2003;-64
2022/10/06 03:40:48;;;;;;;;;;;;;;;17.22;47.92;102034.97;5076283;28;1167;-64
2022/10/06 03:43:13;;;;;;;;;;;;;;;17.02;47.47;102035.44;5049958;28;1198;-65
2022/10/06 03:45:39;;;;;;;;;;;;;;;18.07;48.36;102035.84;5056920;28;1139;-63
2022/10/06 03:48:05;;;;;;;;;;;;;;;17.36;48.48;102030.00;5057439;28;1246;-66
2022/10/06 03:50:31;;;;;;;;;;;;;;;18.58;48.63;102035.72;5070468;28;1190;-64
2022/10/06 03:52:57;;;;;;;;;;;;;;;15.03;57.51;102032.22;5059111;28;1131;-63
2022/10/06 03:55:23;;;;;;;;;;;;;;;16.37;51.22;102035.50;5067845;28;1255;-65
2022/10/06 03:57:48;;;;;;;;;;;;;;;17.95;50.60;102037.88;5070873;28;1223;-63
2022/10/06 04:00:13;;;;;;;;;;;;;;;17.26;50.18;102025.16;5069280;28;1988;-63
2022/10/06 04:02:40;;;;;;;;;;;;;;;16.96;49.38;102039.16;5076218;28;1174;-62
2022/10/06 04:05:05;;;;;;;;;;;;;;;17.76;49.97;102029.03;5076650;28;1251;-61
2022/10/06 04:07:31;;;;;;;;;;;;;;;17.29;50.22;102030.16;5057620;28;1353;-62
2022/10/06 04:09:56;;;;;;;;;;;;;;;17.79;50.06;102029.38;5077036;28;1205;-62
2022/10/06 04:12:22;;;;;;;;;;;;;;;17.50;51.69;102033.28;5059088;28;1087;-63
2022/10/06 04:14:48;;;;;;;;;;;;;;;15.45;55.46;102044.28;5057695;28;1347;-61
2022/10/06 04:17:14;;;;;;;;;;;;;;;17.76;52.06;102032.59;5075506;28;1286;-61
2022/10/06 04:19:40;;;;;;;;;;;;;;;17.40;51.53;102037.53;5044405;28;1978;-58
2022/10/06 04:22:06;;;;;;;;;;;;;;;17.10;49.93;102037.81;5058820;28;1450;-58
2022/10/06 04:24:33;;;;;;;;;;;;;;;18.03;50.67;102037.44;5058580;28;1285;-61
2022/10/06 04:27:26;;;;;;;;;;;;;;;17.27;50.29;102030.41;5058494;28;1362;-61
2022/10/06 04:29:50;;;;;;;;;;;;;;;17.85;50.32;102035.78;5057547;28;1382;-56
2022/10/06 04:32:16;;;;;;;;;;;;;;;17.83;50.41;102028.84;5058528;28;1234;-61
2022/10/06 04:34:42;;;;;;;;;;;;;;;17.17;49.74;102038.47;5076314;28;1119;-59
2022/10/06 04:37:09;;;;;;;;;;;;;;;18.66;49.33;102045.44;5058013;28;1233;-63
2022/10/06 04:39:36;;;;;;;;;;;;;;;14.36;59.12;102049.44;5058398;28;2019;-65
2022/10/06 04:42:02;;;;;;;;;;;;;;;16.40;50.88;102046.00;5058768;28;1378;-65
2022/10/06 04:44:29;;;;;;;;;;;;;;;17.49;51.28;102042.59;5058043;28;1126;-65
2022/10/06 04:46:59;;;;;;;;;;;;;;;16.94;50.22;102050.41;5058330;28;1229;-65
2022/10/06 04:49:24;;;;;;;;;;;;;;;16.80;49.06;102044.31;5054061;28;1218;-64
2022/10/06 04:51:51;;;;;;;;;;;;;;;17.75;50.24;102054.84;5054632;28;1158;-63
2022/10/06 04:54:18;;;;;;;;;;;;;;;17.15;49.64;102048.88;5058063;28;1108;-60
2022/10/06 04:56:44;;;;;;;;;;;;;;;16.98;49.01;102048.84;5058351;28;1317;-65
2022/10/06 04:59:09;;;;;;;;;;;;;;;17.49;50.00;102045.34;5052560;28;1914;-64
2022/10/06 05:01:38;;;;;;;;;;;;;;;17.06;49.02;102047.63;5042711;28;1388;-64
2022/10/06 05:04:08;;;;;;;;;;;;;;;18.62;49.34;102052.53;5054156;28;1228;-63
2022/10/06 05:06:35;;;;;;;;;;;;;;;17.61;50.05;102044.22;5054664;28;1209;-65
2022/10/06 05:09:02;;;;;;;;;;;;;;;17.24;49.02;102039.16;5053920;28;1314;-63
2022/10/06 05:11:30;;;;;;;;;;;;;;;17.72;49.85;102045.19;5055311;28;2108;-67
2022/10/06 05:13:56;;;;;;;;;;;;;;;17.64;49.77;102047.53;5054918;28;1333;-67
2022/10/06 05:16:23;;;;;;;;;;;;;;;17.31;48.99;102050.00;5039180;28;1306;-65
2022/10/06 05:18:49;;;;;;;;;;;;;;;18.40;49.14;102056.13;5052678;28;1913;-65
2022/10/06 05:21:15;;;;;;;;;;;;;;;17.58;49.60;102049.34;5054018;28;1325;-64
2022/10/06 05:23:41;;;;;;;;;;;;;;;17.61;49.68;102054.34;5056310;28;1122;-63
2022/10/06 05:26:06;;;;;;;;;;;;;;;17.86;49.54;102050.38;5056707;28;1190;-64
2022/10/06 05:28:32;;;;;;;;;;;;;;;17.43;48.80;102058.16;5055902;28;1126;-65
2022/10/06 05:31:04;;;;;;;;;;;;;;;17.26;48.06;102053.50;5037717;28;1573;-61
2022/10/06 05:33:31;;;;;;;;;;;;;;;18.10;48.61;102054.63;5060698;28;1607;-63
2022/10/06 05:35:57;;;;;;;;;;;;;;;17.57;48.82;102055.94;5053786;28;1294;-65
2022/10/06 05:38:22;;;;;;;;;;;;;;;18.40;47.36;102058.91;5054285;28;1979;-64
2022/10/06 05:40:48;;;;;;;;;;;;;;;17.87;48.94;102063.88;5054622;28;1206;-65
2022/10/06 05:43:14;;;;;;;;;;;;;;;17.55;50.07;102055.38;5055893;28;1201;-63
2022/10/06 05:45:39;;;;;;;;;;;;;;;17.34;50.53;102056.94;5054660;28;1274;-61
2022/10/06 05:48:05;;;;;;;;;;;;;;;17.15;51.13;102059.03;5056102;28;1158;-61
2022/10/06 05:50:30;;;;;;;;;;;;;;;16.99;51.66;102058.75;5048733;28;1311;-64
2022/10/06 05:52:56;;;;;;;;;;;;;;;16.89;51.98;102061.31;5044414;28;1395;-65
2022/10/06 05:55:22;;;;;;;;;;;;;;;16.77;52.29;102062.16;5052857;28;1520;-65
2022/10/06 05:57:48;;;;;;;;;;;;;;;16.64;52.74;102065.16;5055705;28;1312;-66
2022/10/06 06:00:13;;;;;;;;;;;;;;;16.58;52.50;102068.88;5075327;28;1908;-63
2022/10/06 06:02:41;;;;;;;;;;;;;;;16.57;52.77;102069.97;5060271;28;1279;-63
2022/10/06 06:05:09;;;;;;;;;;;;;;;16.45;53.00;102063.66;5061819;28;1336;-63
2022/10/06 06:07:34;;;;;;;;;;;;;;;16.36;53.28;102066.75;5059524;28;1135;-65
2022/10/06 06:10:00;;;;;;;;;;;;;;;16.26;53.16;102066.53;5061633;28;1385;-65
2022/10/06 06:12:25;;;;;;;;;;;;;;;16.20;53.60;102070.22;5079359;28;1420;-66
2022/10/06 06:17:53;;;;;;;;;;;;;;;16.11;53.52;102063.44;5074148;28;1265;-64
2022/10/06 06:20:18;;;;;;;;;;;;;;;16.04;53.67;102074.53;5060310;28;1994;-63
2022/10/06 06:22:44;;;;;;;;;;;;;;;17.35;51.02;102078.66;5057436;28;2331;-60
2022/10/06 06:25:11;;;;;;;;;;;;;;;16.87;52.27;102068.91;5060106;28;1195;-63
2022/10/06 06:27:40;;;;;;;;;;;;;;;16.48;53.28;102075.00;5059643;28;1322;-65
2022/10/06 06:30:07;;;;;;;;;;;;;;;16.29;53.61;102066.06;5060383;28;1373;-64
2022/10/06 06:32:33;;;;;;;;;;;;;;;16.22;53.73;102065.34;5059082;28;1389;-66
2022/10/06 06:34:59;;;;;;;;;;;;;;;16.88;52.67;102062.34;5059981;28;1377;-62
2022/10/06 06:37:25;;;;;;;;;;;;;;;17.09;51.96;102058.94;5061011;28;1276;-62
2022/10/06 06:39:51;;;;;;;;;;;;;;;16.57;53.18;102058.97;5060665;28;1962;-62
2022/10/06 06:42:16;;;;;;;;;;;;;;;16.40;53.66;102065.19;5060568;28;1353;-66
2022/10/06 06:45:14;;;;;;;;;;;;;;;16.25;53.99;102070.34;5072511;28;1212;-66
2022/10/06 06:48:15;;;;;;;;;;;;;;;17.24;51.87;102066.66;5069156;28;1319;-64
2022/10/06 06:50:41;;;;;;;;;;;;;;;17.04;52.09;102072.59;5061527;28;1216;-63
2022/10/06 06:53:07;;;;;;;;;;;;;;;16.61;53.47;102068.41;5078007;28;1508;-63
2022/10/06 06:55:35;;;;;;;;;;;;;;;16.39;53.69;102070.94;5060337;28;1251;-63
2022/10/06 06:58:01;;;;;;;;;;;;;;;16.27;53.92;102070.09;5060294;28;1225;-64
2022/10/06 07:00:27;;;;;;;;;;;;;;;16.19;54.28;102065.84;5078363;28;1910;-64
2022/10/06 07:02:59;;;;;;;;;;;;;;;16.07;54.21;102069.41;5076158;28;980;-62
2022/10/06 07:05:25;;;;;;;;;;;;;;;17.07;52.26;102063.84;5060073;28;1438;-64
2022/10/06 07:07:51;;;;;;;;;;;;;;;17.15;52.05;102062.63;5060319;28;1299;-65
2022/10/06 07:10:16;;;;;;;;;;;;;;;16.63;53.43;102071.72;5060047;28;1516;-62
2022/10/06 07:12:44;;;;;;;;;;;;;;;16.38;53.75;102070.13;5060278;28;1345;-64
2022/10/06 07:26:14;;;;;;;;;;;;;;;16.52;53.81;102054.22;5058449;28;1190;-61
2022/10/06 07:28:41;;;;;;;;;;;;;;;16.38;54.24;102045.41;5059569;28;1497;-64
2022/10/06 07:31:07;;;;;;;;;;;;;;;16.26;54.25;102047.31;5060180;28;1212;-64
2022/10/06 07:33:32;;;;;;;;;;;;;;;16.17;54.30;102046.00;5057028;28;1548;-65
2022/10/06 07:36:01;;;;;;;;;;;;;;;16.06;54.58;102047.69;5060067;28;1111;-63
2022/10/06 07:38:28;;;;;;;;;;;;;;;17.30;52.04;102047.50;5059823;28;1974;-64
2022/10/06 07:40:55;;;;;;;;;;;;;;;17.07;52.39;102041.88;5059904;28;1221;-64
2022/10/06 07:43:22;;;;;;;;;;;;;;;16.55;53.90;102048.22;5059485;28;1202;-66
2022/10/06 07:45:49;;;;;;;;;;;;;;;16.36;54.34;102043.97;5052261;28;1118;-67
2022/10/06 07:48:20;;;;;;;;;;;;;;;16.32;54.22;102043.59;5059689;28;1281;-64
2022/10/06 07:51:05;;;;;;;;;;;;;;;16.15;54.64;102042.69;5056989;28;1200;-64
2022/10/06 07:53:36;;;;;;;;;;;;;;;16.37;54.14;102043.72;5058230;28;1263;-62
2022/10/06 07:56:09;;;;;;;;;;;;;;;17.38;51.72;102036.94;5058737;28;1315;-63
2022/10/06 07:58:39;;;;;;;;;;;;;;;16.66;53.74;102043.81;5059170;28;1976;-63
2022/10/06 08:01:05;;;;;;;;;;;;;;;16.38;54.17;102039.91;5077116;28;1095;-64
2022/10/06 08:03:31;;;;;;;;;;;;;;;16.29;54.34;102037.78;5075670;28;1202;-64
2022/10/06 08:05:58;;;;;;;;;;;;;;;16.18;54.76;102039.47;5075686;28;1242;-64
2022/10/06 08:08:23;;;;;;;;;;;;;;;16.12;54.67;102037.66;5065927;28;1055;-65
2022/10/06 08:10:52;;;;;;;;;;;;;;;17.37;51.78;102035.25;5074088;28;1274;-63
2022/10/06 08:13:18;;;;;;;;;;;;;;;16.93;52.91;102035.84;5075235;28;1298;-60
2022/10/06 08:15:43;;;;;;;;;;;;;;;16.52;53.86;102025.91;5074888;28;1206;-64
2022/10/06 08:18:09;;;;;;;;;;;;;;;16.29;54.50;102021.31;5076714;28;1341;-63
2022/10/06 08:20:34;;;;;;;;;;;;;;;16.25;54.64;102031.94;5076197;28;1914;-65
2022/10/06 08:22:59;;;;;;;;;;;;;;;16.16;54.80;102027.88;5075712;28;1297;-61
2022/10/06 08:25:25;;;;;;;;;;;;;;;16.79;53.45;102017.97;5075715;28;1283;-63
2022/10/06 08:27:50;;;;;;;;;;;;;;;17.19;52.20;102014.31;5076694;28;1110;-61
2022/10/06 08:30:16;;;;;;;;;;;;;;;16.62;54.12;102015.16;5076751;28;964;-61
2022/10/06 08:32:41;;;;;;;;;;;;;;;16.59;54.55;102015.63;5076153;28;1329;-63
2022/10/06 08:35:07;;;;;;;;;;;;;;;16.47;55.03;102010.16;5075616;28;1329;-60
2022/10/06 08:37:33;;;;;;;;;;;;;;;16.42;55.50;102008.16;5075855;28;1618;-61
2022/10/06 08:39:58;;;;;;;;;;;;;;;16.37;55.57;102005.28;5076592;28;1922;-63
2022/10/06 08:42:26;;;;;;;;;;;;;;;16.23;55.89;102003.91;5076776;28;1205;-62
2022/10/06 08:44:55;;;;;;;;;;;;;;;17.05;54.20;102002.78;5076062;28;1099;-64
2022/10/06 08:47:21;;;;;;;;;;;;;;;17.08;53.93;102002.31;5076671;28;1573;-64
2022/10/06 08:49:47;;;;;;;;;;;;;;;16.62;54.99;102006.91;5071689;28;1127;-64
2022/10/06 08:52:19;;;;;;;;;;;;;;;16.46;55.53;102003.00;5076510;28;1202;-64
2022/10/06 08:54:50;;;;;;;;;;;;;;;16.31;55.88;101998.00;5058000;28;1267;-63
2022/10/06 08:57:20;;;;;;;;;;;;;;;16.25;55.48;101993.50;5056137;28;866;-63
2022/10/06 08:59:46;;;;;;;;;;;;;;;16.17;55.50;101994.72;5073158;28;1913;-62
2022/10/06 09:02:31;;;;;;;;;;;;;;;16.38;55.28;101995.13;5058396;28;1016;-61
2022/10/06 09:04:59;;;;;;;;;;;;;;;17.61;52.39;101993.84;5068778;28;2130;-61
2022/10/06 09:07:40;;;;;;;;;;;;;;;16.79;54.45;101987.75;5074429;28;1528;-66
2022/10/06 09:10:05;;;;;;;;;;;;;;;16.50;55.30;101987.72;5075479;28;907;-64
2022/10/06 09:12:40;;;;;;;;;;;;;;;16.43;55.07;101990.59;5076340;28;1174;-66
2022/10/06 09:15:06;;;;;;;;;;;;;;;16.92;54.41;101987.44;5068280;28;1174;-65
2022/10/06 09:17:33;;;;;;;;;;;;;;;17.36;52.78;101992.38;5070481;28;1099;-62
2022/10/06 09:19:59;;;;;;;;;;;;;;;16.77;54.18;101988.00;5058404;28;1975;-62
2022/10/06 09:22:27;;;;;;;;;;;;;;;16.54;54.90;101997.13;5075654;28;897;-63
2022/10/06 09:24:54;;;;;;;;;;;;;;;16.45;54.92;101993.09;5058469;28;1107;-64
2022/10/06 09:27:21;;;;;;;;;;;;;;;16.37;54.91;101988.81;5058066;28;1119;-63
2022/10/06 09:29:47;;;;;;;;;;;;;;;16.37;55.04;101998.97;5076371;28;1174;-67
2022/10/06 09:32:13;;;;;;;;;;;;;;;17.72;51.93;101995.66;5076399;28;1138;-66
2022/10/06 09:34:59;;;;;;;;;;;;;;;16.95;53.72;101988.88;5075701;28;1016;-65
2022/10/06 09:37:25;;;;;;;;;;;;;;;16.66;54.48;101986.13;5077862;28;1661;-63
2022/10/06 09:39:51;;;;;;;;;;;;;;;16.46;54.77;101988.44;5080185;28;1913;-63
2022/10/06 09:42:18;;;;;;;;;;;;;;;16.39;55.11;101978.44;5062133;28;993;-64
2022/10/06 09:45:19;;;;;;;;;;;;;;;16.29;55.04;101982.88;5061928;28;1171;-63
2022/10/06 09:47:44;;;;;;;;;;;;;;;16.24;55.14;101984.44;5030499;28;1223;-63
2022/10/06 09:50:26;;;;;;;;;;;;;;;17.76;51.56;101985.81;5067023;28;1019;-61
2022/10/06 09:53:02;;;;;;;;;;;;;;;16.93;53.53;101978.13;5077737;28;1525;-62
2022/10/06 09:55:32;;;;;;;;;;;;;;;16.60;54.66;101990.66;5078017;28;1126;-61
2022/10/06 09:57:58;;;;;;;;;;;;;;;16.50;54.66;101984.97;5070176;28;1227;-60
2022/10/06 10:00:28;;;;;;;;;;;;;;;16.43;54.81;101979.59;5079449;28;1898;-61
2022/10/06 10:03:01;;;;;;;;;;;;;;;16.31;55.08;101970.56;5053722;28;1119;-63
2022/10/06 10:05:36;;;;;;;;;;;;;;;16.23;55.18;101976.47;5056967;28;1151;-60
2022/10/06 10:08:08;;;;;;;;;;;;;;;17.12;53.15;101975.16;5061592;28;1198;-65
2022/10/06 10:10:35;;;;;;;;;;;;;;;17.10;53.31;101972.66;5077938;28;928;-62
2022/10/06 10:13:00;;;;;;;;;;;;;;;16.68;54.46;101964.72;5066792;28;1107;-62
2022/10/06 10:15:30;;;;;;;;;;;;;;;16.51;54.64;101974.81;5079618;28;1206;-63
2022/10/06 10:17:58;;;;;;;;;;;;;;;16.38;54.73;101960.31;5079357;28;1177;-64
2022/10/06 10:20:23;;;;;;;;;;;;;;;16.28;54.93;101965.56;5078363;28;1981;-60
2022/10/06 10:22:50;;;;;;;;;;;;;;;16.64;54.47;101963.53;5077158;28;1187;-64
2022/10/06 10:25:33;;;;;;;;;;;;;;;17.58;51.89;101961.34;5078932;28;1326;-61
2022/10/06 10:28:21;;;;;;;;;;;;;;;16.80;53.79;101961.09;5077011;28;1250;-62
2022/10/06 10:30:49;;;;;;;;;;;;;;;16.58;54.46;101953.56;5059981;28;1524;-62
2022/10/06 10:33:17;;;;;;;;;;;;;;;16.42;54.74;101955.16;5077809;28;1295;-65
2022/10/06 10:35:45;;;;;;;;;;;;;;;16.36;54.85;101959.69;5077901;28;1461;-65
2022/10/06 10:38:10;;;;;;;;;;;;;;;16.25;55.08;101958.66;5078483;28;1198;-64
2022/10/06 10:40:50;;;;;;;;;;;;;;;16.19;54.89;101951.41;5078798;28;2043;-64
2022/10/06 10:43:20;;;;;;;;;;;;;;;17.74;51.79;101955.00;5079004;28;1195;-65
2022/10/06 10:45:50;;;;;;;;;;;;;;;17.13;53.22;101945.78;5078380;28;1142;-64
2022/10/06 10:48:18;;;;;;;;;;;;;;;16.73;54.20;101940.13;5077717;28;1189;-62
2022/10/06 10:51:00;;;;;;;;;;;;;;;16.55;54.48;101941.16;5073514;28;1206;-64
2022/10/06 10:53:28;;;;;;;;;;;;;;;16.42;54.74;101936.78;5078520;28;1211;-63
2022/10/06 10:55:54;;;;;;;;;;;;;;;16.35;55.02;101938.00;5060383;28;1226;-60
2022/10/06 10:58:22;;;;;;;;;;;;;;;16.30;55.07;101935.97;5077465;28;1976;-62
2022/10/06 11:00:48;;;;;;;;;;;;;;;16.24;54.99;101936.94;5077679;28;1174;-60
2022/10/06 11:03:14;;;;;;;;;;;;;;;17.29;52.97;101922.94;5060373;28;917;-63
2022/10/06 11:05:39;;;;;;;;;;;;;;;17.27;52.85;101922.38;5078421;28;1134;-62
2022/10/06 11:08:17;;;;;;;;;;;;;;;16.79;54.19;101926.44;5078669;28;1143;-66
2022/10/06 11:10:45;;;;;;;;;;;;;;;16.55;54.69;101915.59;5077480;28;1186;-63
2022/10/06 11:13:17;;;;;;;;;;;;;;;16.42;55.06;101909.34;5071915;28;1143;-64
2022/10/06 11:15:45;;;;;;;;;;;;;;;16.33;55.03;101908.03;5070188;28;1258;-60
2022/10/06 11:18:26;;;;;;;;;;;;;;;16.24;55.01;101912.22;5068215;28;1215;-66
2022/10/06 11:20:51;;;;;;;;;;;;;;;17.47;52.78;101904.53;5070980;28;1178;-61
2022/10/06 11:23:32;;;;;;;;;;;;;;;17.17;53.42;101901.06;5075172;28;1460;-67
2022/10/06 11:26:08;;;;;;;;;;;;;;;16.72;54.69;101900.00;5076800;28;1039;-64
2022/10/06 11:28:38;;;;;;;;;;;;;;;16.53;54.95;101901.28;5060600;28;1127;-64
2022/10/06 11:31:12;;;;;;;;;;;;;;;16.45;55.08;101898.91;5077258;28;1385;-61
2022/10/06 11:33:37;;;;;;;;;;;;;;;16.30;55.18;101894.81;5057369;28;1267;-62
2022/10/06 11:36:03;;;;;;;;;;;;;;;17.06;53.73;101893.72;5076433;28;1491;-65
2022/10/06 11:38:28;;;;;;;;;;;;;;;17.23;53.27;101885.47;5076144;28;1969;-61
2022/10/06 11:41:06;;;;;;;;;;;;;;;16.74;54.46;101897.81;5077056;28;1416;-59
2022/10/06 11:43:35;;;;;;;;;;;;;;;16.55;55.01;101893.63;5077929;28;1064;-58
2022/10/06 11:46:09;;;;;;;;;;;;;;;16.37;55.08;101887.25;5077176;28;1161;-60
2022/10/06 11:48:35;;;;;;;;;;;;;;;16.32;55.24;101889.06;5077704;28;1146;-58
2022/10/06 11:51:21;;;;;;;;;;;;;;;16.28;54.89;101883.22;5063647;28;1263;-59
2022/10/06 11:53:46;;;;;;;;;;;;;;;17.67;52.48;101881.97;5060029;28;1444;-59
2022/10/06 11:56:17;;;;;;;;;;;;;;;17.13;53.57;101888.06;5077572;28;1234;-64
2022/10/06 11:58:55;;;;;;;;;;;;;;;16.76;54.49;101873.69;5066520;28;1902;-60
2022/10/06 12:01:26;;;;;;;;;;;;;;;16.52;54.99;101889.47;5075767;28;1241;-64
2022/10/06 12:04:18;;;;;;;;;;;;;;;16.47;54.90;101877.56;5077671;28;1174;-60
2022/10/06 12:06:50;;;;;;;;;;;;;;;16.63;54.84;101874.00;5074583;28;1027;-62
2022/10/06 12:09:29;;;;;;;;;;;;;;;17.49;52.26;101875.69;5076859;28;1107;-62
2022/10/06 12:11:58;;;;;;;;;;;;;;;16.81;54.20;101872.94;5076349;28;1222;-61
2022/10/06 12:14:23;;;;;;;;;;;;;;;16.63;54.58;101868.50;5076412;28;1273;-60
2022/10/06 12:16:50;;;;;;;;;;;;;;;16.49;54.88;101872.66;5077511;28;1150;-64
2022/10/06 12:19:18;;;;;;;;;;;;;;;16.37;55.18;101870.78;5058386;28;1902;-60
2022/10/06 12:21:46;;;;;;;;;;;;;;;16.27;55.17;101862.38;5076196;28;1082;-61
2022/10/06 12:24:18;;;;;;;;;;;;;;;16.25;55.02;101868.06;5071280;28;1127;-57
2022/10/06 12:26:43;;;;;;;;;;;;;;;17.60;52.59;101868.44;5076140;28;1583;-60
2022/10/06 12:29:21;;;;;;;;;;;;;;;17.03;53.68;101872.25;5076552;28;1282;-57
2022/10/06 12:32:05;;;;;;;;;;;;;;;16.63;54.90;101867.69;5076259;28;928;-59
2022/10/06 12:34:50;;;;;;;;;;;;;;;16.49;54.89;101867.97;5076347;28;1213;-60
2022/10/06 12:37:28;;;;;;;;;;;;;;;16.33;55.32;101875.09;5076303;28;1707;-61
2022/10/06 12:40:12;;;;;;;;;;;;;;;16.25;55.12;101867.25;5076367;28;1914;-57
2022/10/06 12:42:38;;;;;;;;;;;;;;;16.17;55.21;101867.63;5073959;28;1539;-56
2022/10/06 12:45:07;;;;;;;;;;;;;;;16.76;54.25;101870.94;5076455;28;1229;-60
2022/10/06 12:47:33;;;;;;;;;;;;;;;17.60;52.34;101865.69;5058740;28;904;-57
2022/10/06 12:50:00;;;;;;;;;;;;;;;16.86;54.24;101863.97;5053314;28;1236;-57
2022/10/06 12:52:30;;;;;;;;;;;;;;;16.53;55.05;101866.41;5059150;28;1123;-59
2022/10/06 12:55:03;;;;;;;;;;;;;;;16.42;55.04;101861.81;5058976;28;1143;-57
2022/10/06 12:57:29;;;;;;;;;;;;;;;16.36;55.20;101860.88;5058578;28;1206;-58
2022/10/06 12:59:55;;;;;;;;;;;;;;;16.60;54.90;101858.84;5075732;28;1906;-62
2022/10/06 13:02:20;;;;;;;;;;;;;;;17.50;52.46;101860.88;5076102;28;1142;-60
2022/10/06 13:04:53;;;;;;;;;;;;;;;16.79;54.44;101850.41;5076271;28;1063;-62
2022/10/06 13:07:22;;;;;;;;;;;;;;;16.55;55.17;101857.91;5075209;28;1114;-57
2022/10/06 13:09:49;;;;;;;;;;;;;;;16.41;55.28;101854.66;5075410;28;1392;-57